sensor_id;sensor_type;location;lat;lon;timestamp;P1;durP1;ratioP1;P2;durP2;ratioP2
3815;SDS011;1923;48.154;11.536;2023-07-02T00:00:31;5.80;;;2.13;;
3815;SDS011;1923;48.154;11.536;2023-07-02T00:03:00;4.13;;;2.20;;
3815;SDS011;1923;48.154;11.536;2023-07-02T00:05:30;4.03;;;2.63;;
3815;SDS011;1923;48.154;11.536;2023-07-02T00:07:58;6.87;;;2.00;;
3815;SDS011;1923;48.154;11.536;2023-07-02T00:10:34;4.60;;;2.03;;
3815;SDS011;1923;48.154;11.536;2023-07-02T00:13:07;4.13;;;2.03;;
3815;SDS011;1923;48.154;11.536;2023-07-02T00:15:35;3.23;;;2.20;;
3815;SDS011;1923;48.154;11.536;2023-07-02T00:18:06;3.53;;;2.20;;
3815;SDS011;1923;48.154;11.536;2023-07-02T00:20:35;3.80;;;1.90;;
3815;SDS011;1923;48.154;11.536;2023-07-02T00:23:04;2.87;;;2.40;;
3815;SDS011;1923;48.154;11.536;2023-07-02T00:25:33;3.40;;;2.00;;
3815;SDS011;1923;48.154;11.536;2023-07-02T00:28:02;4.90;;;2.20;;
3815;SDS011;1923;48.154;11.536;2023-07-02T00:30:32;3.60;;;2.10;;
3815;SDS011;1923;48.154;11.536;2023-07-02T00:33:00;2.80;;;2.00;;
3815;SDS011;1923;48.154;11.536;2023-07-02T00:35:28;2.70;;;2.10;;
3815;SDS011;1923;48.154;11.536;2023-07-02T00:37:57;1.80;;;1.70;;
3815;SDS011;1923;48.154;11.536;2023-07-02T00:40:26;3.30;;;1.87;;
3815;SDS011;1923;48.154;11.536;2023-07-02T00:42:55;2.63;;;2.00;;
3815;SDS011;1923;48.154;11.536;2023-07-02T00:45:27;3.50;;;2.00;;
3815;SDS011;1923;48.154;11.536;2023-07-02T00:47:57;2.47;;;1.57;;
3815;SDS011;1923;48.154;11.536;2023-07-02T00:50:26;3.40;;;1.70;;
3815;SDS011;1923;48.154;11.536;2023-07-02T00:52:55;2.07;;;1.30;;
3815;SDS011;1923;48.154;11.536;2023-07-02T00:55:24;3.97;;;1.43;;
3815;SDS011;1923;48.154;11.536;2023-07-02T00:57:52;2.10;;;1.63;;
3815;SDS011;1923;48.154;11.536;2023-07-02T01:00:22;2.20;;;1.20;;
3815;SDS011;1923;48.154;11.536;2023-07-02T01:02:54;1.70;;;1.27;;
3815;SDS011;1923;48.154;11.536;2023-07-02T01:05:25;4.27;;;1.37;;
3815;SDS011;1923;48.154;11.536;2023-07-02T01:08:02;2.57;;;1.30;;
3815;SDS011;1923;48.154;11.536;2023-07-02T01:10:31;1.57;;;1.30;;
3815;SDS011;1923;48.154;11.536;2023-07-02T01:13:03;3.00;;;1.60;;
3815;SDS011;1923;48.154;11.536;2023-07-02T01:15:36;2.53;;;1.53;;
3815;SDS011;1923;48.154;11.536;2023-07-02T01:18:05;1.90;;;1.53;;
3815;SDS011;1923;48.154;11.536;2023-07-02T01:20:35;3.83;;;1.43;;
3815;SDS011;1923;48.154;11.536;2023-07-02T01:23:04;1.57;;;1.30;;
3815;SDS011;1923;48.154;11.536;2023-07-02T01:25:32;1.87;;;1.60;;
3815;SDS011;1923;48.154;11.536;2023-07-02T01:28:02;1.53;;;1.23;;
3815;SDS011;1923;48.154;11.536;2023-07-02T01:30:30;2.03;;;1.37;;
3815;SDS011;1923;48.154;11.536;2023-07-02T01:32:58;2.23;;;1.43;;
3815;SDS011;1923;48.154;11.536;2023-07-02T01:35:26;3.07;;;1.43;;
3815;SDS011;1923;48.154;11.536;2023-07-02T01:37:56;1.67;;;1.23;;
3815;SDS011;1923;48.154;11.536;2023-07-02T01:40:24;1.53;;;1.13;;
3815;SDS011;1923;48.154;11.536;2023-07-02T01:42:52;1.87;;;1.40;;
3815;SDS011;1923;48.154;11.536;2023-07-02T01:45:20;3.10;;;1.57;;
3815;SDS011;1923;48.154;11.536;2023-07-02T01:47:49;1.80;;;1.50;;
3815;SDS011;1923;48.154;11.536;2023-07-02T01:50:17;2.37;;;1.57;;
3815;SDS011;1923;48.154;11.536;2023-07-02T01:52:45;1.73;;;1.00;;
3815;SDS011;1923;48.154;11.536;2023-07-02T01:55:14;2.33;;;1.70;;
3815;SDS011;1923;48.154;11.536;2023-07-02T01:57:44;2.47;;;1.40;;
3815;SDS011;1923;48.154;11.536;2023-07-02T02:00:12;1.63;;;1.33;;
3815;SDS011;1923;48.154;11.536;2023-07-02T02:02:42;3.00;;;1.23;;
3815;SDS011;1923;48.154;11.536;2023-07-02T02:05:10;2.00;;;1.50;;
3815;SDS011;1923;48.154;11.536;2023-07-02T02:07:38;1.47;;;1.20;;
3815;SDS011;1923;48.154;11.536;2023-07-02T02:10:07;1.97;;;1.23;;
3815;SDS011;1923;48.154;11.536;2023-07-02T02:12:37;1.40;;;1.30;;
3815;SDS011;1923;48.154;11.536;2023-07-02T02:15:06;1.50;;;1.20;;
3815;SDS011;1923;48.154;11.536;2023-07-02T02:17:34;2.40;;;1.67;;
3815;SDS011;1923;48.154;11.536;2023-07-02T02:20:03;1.97;;;1.33;;
3815;SDS011;1923;48.154;11.536;2023-07-02T02:22:33;2.20;;;1.43;;
3815;SDS011;1923;48.154;11.536;2023-07-02T02:25:01;1.80;;;1.40;;
3815;SDS011;1923;48.154;11.536;2023-07-02T02:27:30;2.23;;;1.50;;
3815;SDS011;1923;48.154;11.536;2023-07-02T02:29:59;2.07;;;1.20;;
3815;SDS011;1923;48.154;11.536;2023-07-02T02:32:27;1.57;;;1.30;;
3815;SDS011;1923;48.154;11.536;2023-07-02T02:34:56;4.50;;;1.50;;
3815;SDS011;1923;48.154;11.536;2023-07-02T02:37:24;2.93;;;1.90;;
3815;SDS011;1923;48.154;11.536;2023-07-02T02:39:52;1.60;;;1.20;;
3815;SDS011;1923;48.154;11.536;2023-07-02T02:42:20;2.50;;;1.57;;
3815;SDS011;1923;48.154;11.536;2023-07-02T02:44:48;1.60;;;1.13;;
3815;SDS011;1923;48.154;11.536;2023-07-02T02:47:17;2.40;;;1.67;;
3815;SDS011;1923;48.154;11.536;2023-07-02T02:49:46;2.37;;;1.40;;
3815;SDS011;1923;48.154;11.536;2023-07-02T02:52:14;2.20;;;1.57;;
3815;SDS011;1923;48.154;11.536;2023-07-02T02:54:42;1.90;;;1.53;;
3815;SDS011;1923;48.154;11.536;2023-07-02T02:57:10;1.90;;;1.27;;
3815;SDS011;1923;48.154;11.536;2023-07-02T02:59:38;2.33;;;1.77;;
3815;SDS011;1923;48.154;11.536;2023-07-02T03:02:06;2.07;;;1.37;;
3815;SDS011;1923;48.154;11.536;2023-07-02T03:04:35;1.27;;;0.93;;
3815;SDS011;1923;48.154;11.536;2023-07-02T03:07:06;1.23;;;0.97;;
3815;SDS011;1923;48.154;11.536;2023-07-02T03:09:34;1.53;;;1.23;;
3815;SDS011;1923;48.154;11.536;2023-07-02T03:12:02;1.40;;;1.13;;
3815;SDS011;1923;48.154;11.536;2023-07-02T03:14:31;1.90;;;1.40;;
3815;SDS011;1923;48.154;11.536;2023-07-02T03:16:59;1.93;;;1.37;;
3815;SDS011;1923;48.154;11.536;2023-07-02T03:19:28;2.27;;;1.57;;
3815;SDS011;1923;48.154;11.536;2023-07-02T03:21:57;2.50;;;1.50;;
3815;SDS011;1923;48.154;11.536;2023-07-02T03:24:25;2.03;;;1.40;;
3815;SDS011;1923;48.154;11.536;2023-07-02T03:26:53;2.90;;;1.57;;
3815;SDS011;1923;48.154;11.536;2023-07-02T03:29:21;3.17;;;1.70;;
3815;SDS011;1923;48.154;11.536;2023-07-02T03:31:49;3.03;;;2.03;;
3815;SDS011;1923;48.154;11.536;2023-07-02T03:34:17;5.13;;;2.07;;
3815;SDS011;1923;48.154;11.536;2023-07-02T03:36:45;3.10;;;2.00;;
3815;SDS011;1923;48.154;11.536;2023-07-02T03:39:15;2.57;;;1.87;;
3815;SDS011;1923;48.154;11.536;2023-07-02T03:41:43;4.47;;;2.17;;
3815;SDS011;1923;48.154;11.536;2023-07-02T03:44:11;2.80;;;2.00;;
3815;SDS011;1923;48.154;11.536;2023-07-02T03:46:40;4.30;;;1.70;;
3815;SDS011;1923;48.154;11.536;2023-07-02T03:49:08;2.20;;;1.90;;
3815;SDS011;1923;48.154;11.536;2023-07-02T03:51:36;2.53;;;1.60;;
3815;SDS011;1923;48.154;11.536;2023-07-02T03:54:05;3.63;;;2.10;;
3815;SDS011;1923;48.154;11.536;2023-07-02T03:56:34;3.23;;;2.40;;
3815;SDS011;1923;48.154;11.536;2023-07-02T03:59:02;3.83;;;2.27;;
3815;SDS011;1923;48.154;11.536;2023-07-02T04:01:30;3.83;;;2.47;;
3815;SDS011;1923;48.154;11.536;2023-07-02T04:03:58;6.53;;;2.57;;
3815;SDS011;1923;48.154;11.536;2023-07-02T04:06:26;2.70;;;2.40;;
3815;SDS011;1923;48.154;11.536;2023-07-02T04:08:54;2.97;;;2.40;;
3815;SDS011;1923;48.154;11.536;2023-07-02T04:11:22;3.87;;;2.20;;
3815;SDS011;1923;48.154;11.536;2023-07-02T04:13:52;3.50;;;2.30;;
3815;SDS011;1923;48.154;11.536;2023-07-02T04:16:20;5.30;;;2.40;;
3815;SDS011;1923;48.154;11.536;2023-07-02T04:18:48;3.07;;;2.50;;
3815;SDS011;1923;48.154;11.536;2023-07-02T04:21:17;3.03;;;2.60;;
3815;SDS011;1923;48.154;11.536;2023-07-02T04:23:44;4.23;;;2.60;;
3815;SDS011;1923;48.154;11.536;2023-07-02T04:26:13;4.83;;;2.90;;
3815;SDS011;1923;48.154;11.536;2023-07-02T04:29:02;3.60;;;2.60;;
3815;SDS011;1923;48.154;11.536;2023-07-02T04:31:31;4.40;;;2.50;;
3815;SDS011;1923;48.154;11.536;2023-07-02T04:33:59;5.13;;;2.90;;
3815;SDS011;1923;48.154;11.536;2023-07-02T04:36:27;4.03;;;2.60;;
3815;SDS011;1923;48.154;11.536;2023-07-02T04:38:55;4.07;;;2.70;;
3815;SDS011;1923;48.154;11.536;2023-07-02T04:41:23;3.40;;;2.63;;
3815;SDS011;1923;48.154;11.536;2023-07-02T04:43:52;5.20;;;2.50;;
3815;SDS011;1923;48.154;11.536;2023-07-02T04:46:21;4.23;;;2.77;;
3815;SDS011;1923;48.154;11.536;2023-07-02T04:48:49;5.50;;;3.00;;
3815;SDS011;1923;48.154;11.536;2023-07-02T04:51:17;15.40;;;5.10;;
3815;SDS011;1923;48.154;11.536;2023-07-02T04:53:47;13.97;;;6.30;;
3815;SDS011;1923;48.154;11.536;2023-07-02T04:56:15;6.20;;;3.60;;
3815;SDS011;1923;48.154;11.536;2023-07-02T04:58:43;3.50;;;2.40;;
3815;SDS011;1923;48.154;11.536;2023-07-02T05:01:11;5.40;;;2.60;;
3815;SDS011;1923;48.154;11.536;2023-07-02T05:03:41;12.10;;;5.53;;
3815;SDS011;1923;48.154;11.536;2023-07-02T05:06:09;5.50;;;3.23;;
3815;SDS011;1923;48.154;11.536;2023-07-02T05:08:37;5.53;;;3.40;;
3815;SDS011;1923;48.154;11.536;2023-07-02T05:11:08;4.20;;;3.10;;
3815;SDS011;1923;48.154;11.536;2023-07-02T05:13:36;4.43;;;3.00;;
3815;SDS011;1923;48.154;11.536;2023-07-02T05:16:04;4.40;;;2.67;;
3815;SDS011;1923;48.154;11.536;2023-07-02T05:18:32;4.13;;;3.13;;
3815;SDS011;1923;48.154;11.536;2023-07-02T05:21:01;4.83;;;3.23;;
3815;SDS011;1923;48.154;11.536;2023-07-02T05:23:29;8.80;;;3.27;;
3815;SDS011;1923;48.154;11.536;2023-07-02T05:25:57;5.33;;;2.67;;
3815;SDS011;1923;48.154;11.536;2023-07-02T05:28:25;5.50;;;3.50;;
3815;SDS011;1923;48.154;11.536;2023-07-02T05:30:53;4.50;;;2.30;;
3815;SDS011;1923;48.154;11.536;2023-07-02T05:33:21;5.60;;;3.57;;
3815;SDS011;1923;48.154;11.536;2023-07-02T05:35:50;4.20;;;2.87;;
3815;SDS011;1923;48.154;11.536;2023-07-02T05:38:19;4.43;;;3.43;;
3815;SDS011;1923;48.154;11.536;2023-07-02T05:40:47;7.00;;;2.90;;
3815;SDS011;1923;48.154;11.536;2023-07-02T05:43:16;4.90;;;2.70;;
3815;SDS011;1923;48.154;11.536;2023-07-02T05:45:44;2.83;;;2.53;;
3815;SDS011;1923;48.154;11.536;2023-07-02T05:48:12;3.57;;;2.43;;
3815;SDS011;1923;48.154;11.536;2023-07-02T05:50:40;4.10;;;2.87;;
3815;SDS011;1923;48.154;11.536;2023-07-02T05:53:08;5.60;;;2.20;;
3815;SDS011;1923;48.154;11.536;2023-07-02T05:55:38;4.37;;;2.73;;
3815;SDS011;1923;48.154;11.536;2023-07-02T05:58:07;4.33;;;2.40;;
3815;SDS011;1923;48.154;11.536;2023-07-02T06:00:36;6.30;;;2.43;;
3815;SDS011;1923;48.154;11.536;2023-07-02T06:03:05;3.50;;;2.77;;
3815;SDS011;1923;48.154;11.536;2023-07-02T06:05:33;4.33;;;2.50;;
3815;SDS011;1923;48.154;11.536;2023-07-02T06:08:02;4.70;;;2.20;;
3815;SDS011;1923;48.154;11.536;2023-07-02T06:10:30;3.90;;;2.00;;
3815;SDS011;1923;48.154;11.536;2023-07-02T06:13:00;4.83;;;2.57;;
3815;SDS011;1923;48.154;11.536;2023-07-02T06:15:28;5.03;;;2.77;;
3815;SDS011;1923;48.154;11.536;2023-07-02T06:17:56;4.50;;;2.00;;
3815;SDS011;1923;48.154;11.536;2023-07-02T06:20:24;8.40;;;2.80;;
3815;SDS011;1923;48.154;11.536;2023-07-02T06:22:52;4.60;;;2.47;;
3815;SDS011;1923;48.154;11.536;2023-07-02T06:25:20;3.20;;;2.33;;
3815;SDS011;1923;48.154;11.536;2023-07-02T06:27:48;3.10;;;2.30;;
3815;SDS011;1923;48.154;11.536;2023-07-02T06:30:17;4.83;;;2.77;;
3815;SDS011;1923;48.154;11.536;2023-07-02T06:32:45;3.53;;;2.30;;
3815;SDS011;1923;48.154;11.536;2023-07-02T06:35:13;3.33;;;2.23;;
3815;SDS011;1923;48.154;11.536;2023-07-02T06:37:45;5.67;;;2.53;;
3815;SDS011;1923;48.154;11.536;2023-07-02T06:40:13;4.37;;;2.33;;
3815;SDS011;1923;48.154;11.536;2023-07-02T06:42:41;7.40;;;3.30;;
3815;SDS011;1923;48.154;11.536;2023-07-02T06:45:09;2.90;;;2.33;;
3815;SDS011;1923;48.154;11.536;2023-07-02T06:47:39;7.90;;;4.17;;
3815;SDS011;1923;48.154;11.536;2023-07-02T06:50:07;6.00;;;3.30;;
3815;SDS011;1923;48.154;11.536;2023-07-02T06:52:35;4.53;;;2.70;;
3815;SDS011;1923;48.154;11.536;2023-07-02T06:55:04;13.73;;;6.43;;
3815;SDS011;1923;48.154;11.536;2023-07-02T06:57:32;4.90;;;3.13;;
3815;SDS011;1923;48.154;11.536;2023-07-02T07:00:01;2.97;;;2.23;;
3815;SDS011;1923;48.154;11.536;2023-07-02T07:02:30;5.37;;;3.87;;
3815;SDS011;1923;48.154;11.536;2023-07-02T07:04:59;10.03;;;5.00;;
3815;SDS011;1923;48.154;11.536;2023-07-02T07:07:27;18.23;;;6.53;;
3815;SDS011;1923;48.154;11.536;2023-07-02T07:09:55;5.30;;;3.87;;
3815;SDS011;1923;48.154;11.536;2023-07-02T07:12:23;3.90;;;2.87;;
3815;SDS011;1923;48.154;11.536;2023-07-02T07:14:51;4.07;;;2.60;;
3815;SDS011;1923;48.154;11.536;2023-07-02T07:17:20;7.03;;;3.60;;
3815;SDS011;1923;48.154;11.536;2023-07-02T07:19:48;8.50;;;3.40;;
3815;SDS011;1923;48.154;11.536;2023-07-02T07:22:17;5.20;;;3.60;;
3815;SDS011;1923;48.154;11.536;2023-07-02T07:24:45;6.20;;;2.73;;
3815;SDS011;1923;48.154;11.536;2023-07-02T07:27:13;4.60;;;2.83;;
3815;SDS011;1923;48.154;11.536;2023-07-02T07:29:41;6.97;;;3.30;;
3815;SDS011;1923;48.154;11.536;2023-07-02T07:32:09;5.70;;;2.83;;
3815;SDS011;1923;48.154;11.536;2023-07-02T07:34:37;8.17;;;3.50;;
3815;SDS011;1923;48.154;11.536;2023-07-02T07:37:05;5.27;;;3.63;;
3815;SDS011;1923;48.154;11.536;2023-07-02T07:39:36;4.53;;;3.47;;
3815;SDS011;1923;48.154;11.536;2023-07-02T07:42:04;5.37;;;2.93;;
3815;SDS011;1923;48.154;11.536;2023-07-02T07:44:33;6.30;;;3.47;;
3815;SDS011;1923;48.154;11.536;2023-07-02T07:47:01;5.77;;;3.87;;
3815;SDS011;1923;48.154;11.536;2023-07-02T07:49:29;5.63;;;3.50;;
3815;SDS011;1923;48.154;11.536;2023-07-02T07:51:57;5.07;;;3.30;;
3815;SDS011;1923;48.154;11.536;2023-07-02T07:54:25;6.63;;;3.57;;
3815;SDS011;1923;48.154;11.536;2023-07-02T07:56:55;10.97;;;4.00;;
3815;SDS011;1923;48.154;11.536;2023-07-02T07:59:23;5.93;;;3.40;;
3815;SDS011;1923;48.154;11.536;2023-07-02T08:01:51;6.60;;;4.30;;
3815;SDS011;1923;48.154;11.536;2023-07-02T08:04:19;12.80;;;3.87;;
3815;SDS011;1923;48.154;11.536;2023-07-02T08:06:47;7.03;;;3.63;;
3815;SDS011;1923;48.154;11.536;2023-07-02T08:09:15;7.67;;;3.87;;
3815;SDS011;1923;48.154;11.536;2023-07-02T08:11:43;4.97;;;3.60;;
3815;SDS011;1923;48.154;11.536;2023-07-02T08:14:13;5.90;;;3.00;;
3815;SDS011;1923;48.154;11.536;2023-07-02T08:16:41;7.40;;;4.00;;
3815;SDS011;1923;48.154;11.536;2023-07-02T08:19:10;4.53;;;3.10;;
3815;SDS011;1923;48.154;11.536;2023-07-02T08:21:38;5.27;;;3.37;;
3815;SDS011;1923;48.154;11.536;2023-07-02T08:24:06;3.47;;;2.43;;
3815;SDS011;1923;48.154;11.536;2023-07-02T08:26:35;4.47;;;2.97;;
3815;SDS011;1923;48.154;11.536;2023-07-02T08:29:03;3.77;;;2.90;;
3815;SDS011;1923;48.154;11.536;2023-07-02T08:31:33;3.83;;;2.47;;
3815;SDS011;1923;48.154;11.536;2023-07-02T08:34:01;4.00;;;2.70;;
3815;SDS011;1923;48.154;11.536;2023-07-02T08:36:30;5.37;;;2.90;;
3815;SDS011;1923;48.154;11.536;2023-07-02T08:38:57;2.83;;;2.50;;
3815;SDS011;1923;48.154;11.536;2023-07-02T08:41:25;3.63;;;2.40;;
3815;SDS011;1923;48.154;11.536;2023-07-02T08:43:54;5.30;;;3.43;;
3815;SDS011;1923;48.154;11.536;2023-07-02T08:46:22;4.27;;;2.80;;
3815;SDS011;1923;48.154;11.536;2023-07-02T08:48:52;5.10;;;2.20;;
3815;SDS011;1923;48.154;11.536;2023-07-02T08:51:20;5.60;;;3.00;;
3815;SDS011;1923;48.154;11.536;2023-07-02T08:53:49;4.83;;;2.20;;
3815;SDS011;1923;48.154;11.536;2023-07-02T08:56:17;3.53;;;2.40;;
3815;SDS011;1923;48.154;11.536;2023-07-02T08:58:45;3.43;;;2.37;;
3815;SDS011;1923;48.154;11.536;2023-07-02T09:01:13;5.70;;;2.60;;
3815;SDS011;1923;48.154;11.536;2023-07-02T09:03:42;4.80;;;2.87;;
3815;SDS011;1923;48.154;11.536;2023-07-02T09:06:11;4.10;;;2.60;;
3815;SDS011;1923;48.154;11.536;2023-07-02T09:08:40;4.67;;;2.70;;
3815;SDS011;1923;48.154;11.536;2023-07-02T09:11:08;3.10;;;2.13;;
3815;SDS011;1923;48.154;11.536;2023-07-02T09:13:44;4.63;;;2.83;;
3815;SDS011;1923;48.154;11.536;2023-07-02T09:16:22;3.67;;;2.80;;
3815;SDS011;1923;48.154;11.536;2023-07-02T09:18:55;3.80;;;2.60;;
3815;SDS011;1923;48.154;11.536;2023-07-02T09:21:40;4.80;;;2.90;;
3815;SDS011;1923;48.154;11.536;2023-07-02T09:24:16;6.57;;;3.17;;
3815;SDS011;1923;48.154;11.536;2023-07-02T09:26:48;4.53;;;2.70;;
3815;SDS011;1923;48.154;11.536;2023-07-02T09:29:18;4.23;;;2.83;;
3815;SDS011;1923;48.154;11.536;2023-07-02T09:31:48;5.50;;;3.00;;
3815;SDS011;1923;48.154;11.536;2023-07-02T09:34:34;4.20;;;2.67;;
3815;SDS011;1923;48.154;11.536;2023-07-02T09:37:06;4.00;;;3.00;;
3815;SDS011;1923;48.154;11.536;2023-07-02T09:39:34;4.20;;;2.70;;
3815;SDS011;1923;48.154;11.536;2023-07-02T09:42:04;5.40;;;2.87;;
3815;SDS011;1923;48.154;11.536;2023-07-02T09:44:34;4.07;;;2.90;;
3815;SDS011;1923;48.154;11.536;2023-07-02T09:47:03;6.13;;;3.20;;
3815;SDS011;1923;48.154;11.536;2023-07-02T09:49:32;2.63;;;2.43;;
3815;SDS011;1923;48.154;11.536;2023-07-02T09:52:02;3.53;;;2.70;;
3815;SDS011;1923;48.154;11.536;2023-07-02T09:54:33;10.80;;;4.70;;
3815;SDS011;1923;48.154;11.536;2023-07-02T09:57:02;5.93;;;3.30;;
3815;SDS011;1923;48.154;11.536;2023-07-02T09:59:32;5.73;;;3.47;;
3815;SDS011;1923;48.154;11.536;2023-07-02T10:02:00;4.50;;;3.10;;
3815;SDS011;1923;48.154;11.536;2023-07-02T10:04:38;4.80;;;2.40;;
3815;SDS011;1923;48.154;11.536;2023-07-02T10:07:07;3.80;;;2.70;;
3815;SDS011;1923;48.154;11.536;2023-07-02T10:09:38;4.50;;;3.00;;
3815;SDS011;1923;48.154;11.536;2023-07-02T10:12:17;4.57;;;2.87;;
3815;SDS011;1923;48.154;11.536;2023-07-02T10:14:46;4.10;;;2.63;;
3815;SDS011;1923;48.154;11.536;2023-07-02T10:17:25;3.83;;;3.13;;
3815;SDS011;1923;48.154;11.536;2023-07-02T10:19:56;4.37;;;3.10;;
3815;SDS011;1923;48.154;11.536;2023-07-02T10:22:25;4.03;;;2.77;;
3815;SDS011;1923;48.154;11.536;2023-07-02T10:24:55;6.13;;;2.70;;
3815;SDS011;1923;48.154;11.536;2023-07-02T10:27:33;4.20;;;2.57;;
3815;SDS011;1923;48.154;11.536;2023-07-02T10:30:03;6.00;;;2.83;;
3815;SDS011;1923;48.154;11.536;2023-07-02T10:32:32;3.40;;;2.20;;
3815;SDS011;1923;48.154;11.536;2023-07-02T10:35:01;4.97;;;3.03;;
3815;SDS011;1923;48.154;11.536;2023-07-02T10:37:40;6.63;;;4.13;;
3815;SDS011;1923;48.154;11.536;2023-07-02T10:40:10;3.60;;;2.53;;
3815;SDS011;1923;48.154;11.536;2023-07-02T10:42:45;5.53;;;2.90;;
3815;SDS011;1923;48.154;11.536;2023-07-02T10:45:14;8.57;;;3.57;;
3815;SDS011;1923;48.154;11.536;2023-07-02T10:47:43;7.60;;;3.17;;
3815;SDS011;1923;48.154;11.536;2023-07-02T10:50:15;13.33;;;5.33;;
3815;SDS011;1923;48.154;11.536;2023-07-02T10:52:44;5.30;;;2.93;;
3815;SDS011;1923;48.154;11.536;2023-07-02T10:55:17;4.67;;;3.30;;
3815;SDS011;1923;48.154;11.536;2023-07-02T10:57:46;7.53;;;3.33;;
3815;SDS011;1923;48.154;11.536;2023-07-02T11:00:14;5.40;;;3.43;;
3815;SDS011;1923;48.154;11.536;2023-07-02T11:02:43;6.33;;;3.50;;
3815;SDS011;1923;48.154;11.536;2023-07-02T11:05:11;6.00;;;3.20;;
3815;SDS011;1923;48.154;11.536;2023-07-02T11:07:40;6.07;;;3.77;;
3815;SDS011;1923;48.154;11.536;2023-07-02T11:10:09;7.17;;;3.47;;
3815;SDS011;1923;48.154;11.536;2023-07-02T11:12:45;6.50;;;3.67;;
3815;SDS011;1923;48.154;11.536;2023-07-02T11:15:14;7.10;;;3.80;;
3815;SDS011;1923;48.154;11.536;2023-07-02T11:17:44;6.40;;;3.10;;
3815;SDS011;1923;48.154;11.536;2023-07-02T11:20:13;8.57;;;4.17;;
3815;SDS011;1923;48.154;11.536;2023-07-02T11:22:41;8.87;;;4.17;;
3815;SDS011;1923;48.154;11.536;2023-07-02T11:25:10;6.77;;;3.97;;
3815;SDS011;1923;48.154;11.536;2023-07-02T11:27:39;8.07;;;4.23;;
3815;SDS011;1923;48.154;11.536;2023-07-02T11:30:09;6.90;;;3.70;;
3815;SDS011;1923;48.154;11.536;2023-07-02T11:32:48;6.17;;;3.87;;
3815;SDS011;1923;48.154;11.536;2023-07-02T11:35:18;11.50;;;6.90;;
3815;SDS011;1923;48.154;11.536;2023-07-02T11:37:46;9.30;;;5.00;;
3815;SDS011;1923;48.154;11.536;2023-07-02T11:40:17;11.20;;;5.20;;
3815;SDS011;1923;48.154;11.536;2023-07-02T11:42:46;8.50;;;4.43;;
3815;SDS011;1923;48.154;11.536;2023-07-02T11:45:15;8.50;;;4.57;;
3815;SDS011;1923;48.154;11.536;2023-07-02T11:47:43;10.63;;;5.27;;
3815;SDS011;1923;48.154;11.536;2023-07-02T11:50:11;12.30;;;5.60;;
3815;SDS011;1923;48.154;11.536;2023-07-02T11:52:52;10.67;;;5.60;;
3815;SDS011;1923;48.154;11.536;2023-07-02T11:55:21;12.00;;;5.63;;
3815;SDS011;1923;48.154;11.536;2023-07-02T11:57:49;8.23;;;5.10;;
3815;SDS011;1923;48.154;11.536;2023-07-02T12:00:18;10.67;;;4.53;;
3815;SDS011;1923;48.154;11.536;2023-07-02T12:02:47;8.70;;;4.80;;
3815;SDS011;1923;48.154;11.536;2023-07-02T12:05:16;14.07;;;6.30;;
3815;SDS011;1923;48.154;11.536;2023-07-02T12:07:44;11.07;;;5.23;;
3815;SDS011;1923;48.154;11.536;2023-07-02T12:10:12;8.07;;;4.77;;
3815;SDS011;1923;48.154;11.536;2023-07-02T12:12:40;9.93;;;5.27;;
3815;SDS011;1923;48.154;11.536;2023-07-02T12:15:08;12.00;;;5.63;;
3815;SDS011;1923;48.154;11.536;2023-07-02T12:17:38;9.80;;;5.53;;
3815;SDS011;1923;48.154;11.536;2023-07-02T12:20:07;11.07;;;5.60;;
3815;SDS011;1923;48.154;11.536;2023-07-02T12:22:35;10.90;;;6.13;;
3815;SDS011;1923;48.154;11.536;2023-07-02T12:25:04;12.17;;;6.80;;
3815;SDS011;1923;48.154;11.536;2023-07-02T12:27:33;11.10;;;6.50;;
3815;SDS011;1923;48.154;11.536;2023-07-02T12:30:01;17.33;;;6.93;;
3815;SDS011;1923;48.154;11.536;2023-07-02T12:32:29;12.53;;;6.37;;
3815;SDS011;1923;48.154;11.536;2023-07-02T12:34:59;11.10;;;6.30;;
3815;SDS011;1923;48.154;11.536;2023-07-02T12:37:28;12.23;;;7.00;;
3815;SDS011;1923;48.154;11.536;2023-07-02T12:39:55;12.87;;;6.97;;
3815;SDS011;1923;48.154;11.536;2023-07-02T12:42:24;15.00;;;7.10;;
3815;SDS011;1923;48.154;11.536;2023-07-02T12:44:52;13.97;;;6.23;;
3815;SDS011;1923;48.154;11.536;2023-07-02T12:47:20;9.13;;;5.83;;
3815;SDS011;1923;48.154;11.536;2023-07-02T12:49:48;12.77;;;6.23;;
3815;SDS011;1923;48.154;11.536;2023-07-02T12:52:18;12.70;;;6.53;;
3815;SDS011;1923;48.154;11.536;2023-07-02T12:54:46;16.40;;;7.70;;
3815;SDS011;1923;48.154;11.536;2023-07-02T12:57:14;18.03;;;8.40;;
3815;SDS011;1923;48.154;11.536;2023-07-02T12:59:45;22.70;;;9.50;;
3815;SDS011;1923;48.154;11.536;2023-07-02T13:02:13;13.50;;;7.10;;
3815;SDS011;1923;48.154;11.536;2023-07-02T13:04:41;11.97;;;6.70;;
3815;SDS011;1923;48.154;11.536;2023-07-02T13:07:10;14.87;;;7.50;;
3815;SDS011;1923;48.154;11.536;2023-07-02T13:09:39;17.70;;;7.50;;
3815;SDS011;1923;48.154;11.536;2023-07-02T13:12:08;16.20;;;8.10;;
3815;SDS011;1923;48.154;11.536;2023-07-02T13:14:37;12.57;;;6.80;;
3815;SDS011;1923;48.154;11.536;2023-07-02T13:17:05;13.73;;;7.00;;
3815;SDS011;1923;48.154;11.536;2023-07-02T13:19:33;12.57;;;7.23;;
3815;SDS011;1923;48.154;11.536;2023-07-02T13:22:02;13.33;;;7.67;;
3815;SDS011;1923;48.154;11.536;2023-07-02T13:24:32;15.60;;;7.40;;
3815;SDS011;1923;48.154;11.536;2023-07-02T13:27:04;16.60;;;7.77;;
3815;SDS011;1923;48.154;11.536;2023-07-02T13:29:35;10.93;;;7.17;;
3815;SDS011;1923;48.154;11.536;2023-07-02T13:32:04;15.50;;;8.33;;
3815;SDS011;1923;48.154;11.536;2023-07-02T13:34:33;15.90;;;7.60;;
3815;SDS011;1923;48.154;11.536;2023-07-02T13:37:01;13.17;;;7.40;;
3815;SDS011;1923;48.154;11.536;2023-07-02T13:39:29;14.97;;;7.97;;
3815;SDS011;1923;48.154;11.536;2023-07-02T13:41:58;15.30;;;8.20;;
3815;SDS011;1923;48.154;11.536;2023-07-02T13:44:27;19.30;;;8.53;;
3815;SDS011;1923;48.154;11.536;2023-07-02T13:46:55;11.40;;;6.40;;
3815;SDS011;1923;48.154;11.536;2023-07-02T13:49:23;15.53;;;7.87;;
3815;SDS011;1923;48.154;11.536;2023-07-02T13:51:51;16.97;;;7.87;;
3815;SDS011;1923;48.154;11.536;2023-07-02T13:54:20;14.70;;;8.00;;
3815;SDS011;1923;48.154;11.536;2023-07-02T13:56:48;17.27;;;7.80;;
3815;SDS011;1923;48.154;11.536;2023-07-02T13:59:18;14.80;;;7.90;;
3815;SDS011;1923;48.154;11.536;2023-07-02T14:01:47;17.27;;;7.93;;
3815;SDS011;1923;48.154;11.536;2023-07-02T14:04:16;15.53;;;9.07;;
3815;SDS011;1923;48.154;11.536;2023-07-02T14:06:45;16.40;;;8.10;;
3815;SDS011;1923;48.154;11.536;2023-07-02T14:09:13;19.50;;;8.57;;
3815;SDS011;1923;48.154;11.536;2023-07-02T14:11:41;23.87;;;9.90;;
3815;SDS011;1923;48.154;11.536;2023-07-02T14:14:10;18.07;;;7.10;;
3815;SDS011;1923;48.154;11.536;2023-07-02T14:16:39;14.30;;;7.40;;
3815;SDS011;1923;48.154;11.536;2023-07-02T14:19:08;16.47;;;8.07;;
3815;SDS011;1923;48.154;11.536;2023-07-02T14:21:36;16.70;;;8.30;;
3815;SDS011;1923;48.154;11.536;2023-07-02T14:24:05;16.63;;;9.00;;
3815;SDS011;1923;48.154;11.536;2023-07-02T14:26:33;14.03;;;7.70;;
3815;SDS011;1923;48.154;11.536;2023-07-02T14:29:01;20.47;;;9.37;;
3815;SDS011;1923;48.154;11.536;2023-07-02T14:31:30;21.00;;;9.83;;
3815;SDS011;1923;48.154;11.536;2023-07-02T14:33:59;16.57;;;8.70;;
3815;SDS011;1923;48.154;11.536;2023-07-02T14:36:27;18.77;;;9.83;;
3815;SDS011;1923;48.154;11.536;2023-07-02T14:38:55;17.23;;;9.73;;
3815;SDS011;1923;48.154;11.536;2023-07-02T14:41:23;18.07;;;9.40;;
3815;SDS011;1923;48.154;11.536;2023-07-02T14:43:51;22.03;;;10.73;;
3815;SDS011;1923;48.154;11.536;2023-07-02T14:46:19;22.97;;;9.83;;
3815;SDS011;1923;48.154;11.536;2023-07-02T14:48:48;18.00;;;8.60;;
3815;SDS011;1923;48.154;11.536;2023-07-02T14:51:18;18.80;;;8.70;;
3815;SDS011;1923;48.154;11.536;2023-07-02T14:53:46;22.10;;;9.57;;
3815;SDS011;1923;48.154;11.536;2023-07-02T14:56:14;20.70;;;10.00;;
3815;SDS011;1923;48.154;11.536;2023-07-02T14:58:42;17.80;;;9.20;;
3815;SDS011;1923;48.154;11.536;2023-07-02T15:01:10;18.90;;;8.83;;
3815;SDS011;1923;48.154;11.536;2023-07-02T15:03:45;18.03;;;8.80;;
3815;SDS011;1923;48.154;11.536;2023-07-02T15:06:19;20.90;;;9.03;;
3815;SDS011;1923;48.154;11.536;2023-07-02T15:08:57;17.17;;;8.40;;